sensor_id;sensor_type;location;lat;lon;timestamp;pressure;altitude;pressure_sealevel;temperature;humidity
75219;BME280;63801;49.414;19.474;2023-09-19T00:00:28;93394.53;;;18.84;69.63
75219;BME280;63801;49.414;19.474;2023-09-19T00:02:29;93391.41;;;18.82;69.82
75219;BME280;63801;49.414;19.474;2023-09-19T00:04:31;93398.31;;;18.94;69.89
75219;BME280;63801;49.414;19.474;2023-09-19T00:06:32;93389.69;;;18.95;69.99
75219;BME280;63801;49.414;19.474;2023-09-19T00:08:36;93385.06;;;18.92;69.64
75219;BME280;63801;49.414;19.474;2023-09-19T00:10:36;93386.91;;;18.99;70.02
75219;BME280;63801;49.414;19.474;2023-09-19T00:12:36;93384.22;;;18.95;70.20
75219;BME280;63801;49.414;19.474;2023-09-19T00:14:37;93368.28;;;18.90;70.37
75219;BME280;63801;49.414;19.474;2023-09-19T00:16:37;93369.84;;;18.91;70.44
75219;BME280;63801;49.414;19.474;2023-09-19T00:18:38;93371.06;;;18.87;70.14
75219;BME280;63801;49.414;19.474;2023-09-19T00:20:38;93359.06;;;18.80;70.28
75219;BME280;63801;49.414;19.474;2023-09-19T00:22:40;93349.78;;;18.74;70.66
75219;BME280;63801;49.414;19.474;2023-09-19T00:24:41;93347.78;;;18.78;70.72
75219;BME280;63801;49.414;19.474;2023-09-19T00:26:42;93354.75;;;18.83;70.68
75219;BME280;63801;49.414;19.474;2023-09-19T00:28:43;93355.56;;;18.80;70.78
75219;BME280;63801;49.414;19.474;2023-09-19T00:30:43;93343.97;;;18.69;70.50
75219;BME280;63801;49.414;19.474;2023-09-19T00:32:44;93329.16;;;18.70;70.50
75219;BME280;63801;49.414;19.474;2023-09-19T00:34:44;93341.97;;;18.73;70.75
75219;BME280;63801;49.414;19.474;2023-09-19T00:36:44;93340.06;;;18.70;71.04
75219;BME280;63801;49.414;19.474;2023-09-19T00:38:45;93326.59;;;18.56;71.17
75219;BME280;63801;49.414;19.474;2023-09-19T00:40:47;93342.13;;;18.62;71.42
75219;BME280;63801;49.414;19.474;2023-09-19T00:42:49;93343.34;;;18.58;71.73
75219;BME280;63801;49.414;19.474;2023-09-19T00:44:49;93339.13;;;18.53;71.61
75219;BME280;63801;49.414;19.474;2023-09-19T00:46:52;93311.63;;;18.33;72.30
75219;BME280;63801;49.414;19.474;2023-09-19T00:48:53;93332.56;;;18.44;72.09
75219;BME280;63801;49.414;19.474;2023-09-19T00:50:53;93328.41;;;18.32;71.86
75219;BME280;63801;49.414;19.474;2023-09-19T00:52:54;93342.31;;;18.41;71.93
75219;BME280;63801;49.414;19.474;2023-09-19T00:54:58;93327.22;;;18.33;71.88
75219;BME280;63801;49.414;19.474;2023-09-19T00:57:00;93347.38;;;18.42;71.59
75219;BME280;63801;49.414;19.474;2023-09-19T00:59:00;93335.69;;;18.42;71.69
75219;BME280;63801;49.414;19.474;2023-09-19T01:01:01;93344.31;;;18.40;72.03
75219;BME280;63801;49.414;19.474;2023-09-19T01:03:03;93336.47;;;18.42;71.82
75219;BME280;63801;49.414;19.474;2023-09-19T01:05:04;93341.88;;;18.50;71.80
75219;BME280;63801;49.414;19.474;2023-09-19T01:07:06;93347.66;;;18.52;71.90
75219;BME280;63801;49.414;19.474;2023-09-19T01:09:06;93340.66;;;18.51;71.83
75219;BME280;63801;49.414;19.474;2023-09-19T01:11:25;93338.69;;;18.55;71.66
75219;BME280;63801;49.414;19.474;2023-09-19T01:13:42;93338.69;;;18.55;72.06
75219;BME280;63801;49.414;19.474;2023-09-19T01:15:52;93333.59;;;18.57;72.06
75219;BME280;63801;49.414;19.474;2023-09-19T01:18:05;93335.50;;;18.60;71.81
75219;BME280;63801;49.414;19.474;2023-09-19T01:27:31;93318.28;;;18.66;71.49
75219;BME280;63801;49.414;19.474;2023-09-19T01:29:49;93324.88;;;18.69;71.89
75219;BME280;63801;49.414;19.474;2023-09-19T01:31:51;93320.97;;;18.70;71.79
75219;BME280;63801;49.414;19.474;2023-09-19T01:33:58;93322.09;;;18.72;71.63
75219;BME280;63801;49.414;19.474;2023-09-19T01:35:59;93316.22;;;18.74;71.64
75219;BME280;63801;49.414;19.474;2023-09-19T01:37:59;93322.88;;;18.73;71.36
75219;BME280;63801;49.414;19.474;2023-09-19T01:40:08;93313.50;;;18.74;71.68
75219;BME280;63801;49.414;19.474;2023-09-19T01:46:58;93319.34;;;18.76;71.66
75219;BME280;63801;49.414;19.474;2023-09-19T01:49:21;93311.09;;;18.79;71.42
75219;BME280;63801;49.414;19.474;2023-09-19T01:51:32;93310.31;;;18.79;71.59
75219;BME280;63801;49.414;19.474;2023-09-19T01:54:03;93313.88;;;18.76;72.10
75219;BME280;63801;49.414;19.474;2023-09-19T01:56:16;93310.72;;;18.77;71.63
75219;BME280;63801;49.414;19.474;2023-09-19T01:58:31;93309.59;;;18.75;72.12
75219;BME280;63801;49.414;19.474;2023-09-19T02:00:36;93316.22;;;18.74;72.33
75219;BME280;63801;49.414;19.474;2023-09-19T02:02:38;93310.88;;;18.67;71.98
75219;BME280;63801;49.414;19.474;2023-09-19T02:04:40;93309.66;;;18.68;72.25
75219;BME280;63801;49.414;19.474;2023-09-19T02:06:41;93314.31;;;18.71;72.45
75219;BME280;63801;49.414;19.474;2023-09-19T02:08:41;93311.53;;;18.74;71.89
75219;BME280;63801;49.414;19.474;2023-09-19T02:10:41;93316.59;;;18.76;72.34
75219;BME280;63801;49.414;19.474;2023-09-19T02:12:42;93310.72;;;18.77;72.09
75219;BME280;63801;49.414;19.474;2023-09-19T02:14:42;93315.41;;;18.77;72.05
75219;BME280;63801;49.414;19.474;2023-09-19T02:16:42;93313.09;;;18.75;72.41
75219;BME280;63801;49.414;19.474;2023-09-19T02:18:42;93305.34;;;18.70;72.43
75219;BME280;63801;49.414;19.474;2023-09-19T02:20:43;93309.59;;;18.75;72.44
75219;BME280;63801;49.414;19.474;2023-09-19T02:22:43;93306.47;;;18.73;72.37
75219;BME280;63801;49.414;19.474;2023-09-19T02:24:44;93290.97;;;18.66;71.98
75219;BME280;63801;49.414;19.474;2023-09-19T02:26:48;93304.84;;;18.79;72.39
75219;BME280;63801;49.414;19.474;2023-09-19T02:28:48;93305.63;;;18.79;72.09
75219;BME280;63801;49.414;19.474;2023-09-19T02:30:49;93301.72;;;18.80;72.03
75219;BME280;63801;49.414;19.474;2023-09-19T02:32:50;93299.72;;;18.81;72.06
75219;BME280;63801;49.414;19.474;2023-09-19T02:34:50;93302.47;;;18.81;72.17
75219;BME280;63801;49.414;19.474;2023-09-19T02:36:52;93302.84;;;18.83;71.84
75219;BME280;63801;49.414;19.474;2023-09-19T02:38:53;93294.28;;;18.81;72.14
75219;BME280;63801;49.414;19.474;2023-09-19T02:40:54;93299.34;;;18.82;71.96
75219;BME280;63801;49.414;19.474;2023-09-19T02:42:57;93292.41;;;18.74;72.36
75219;BME280;63801;49.414;19.474;2023-09-19T02:44:59;93297.00;;;18.81;71.99
75219;BME280;63801;49.414;19.474;2023-09-19T02:47:00;93290.00;;;18.80;72.14
75219;BME280;63801;49.414;19.474;2023-09-19T02:49:00;93295.03;;;18.85;71.93
75219;BME280;63801;49.414;19.474;2023-09-19T02:51:00;93285.28;;;18.84;71.77
75219;BME280;63801;49.414;19.474;2023-09-19T02:53:01;93291.19;;;18.79;71.73
75219;BME280;63801;49.414;19.474;2023-09-19T02:55:02;93284.28;;;18.71;72.13
75219;BME280;63801;49.414;19.474;2023-09-19T02:57:05;93281.56;;;18.71;71.85
75219;BME280;63801;49.414;19.474;2023-09-19T02:59:06;93275.81;;;18.62;72.18
75219;BME280;63801;49.414;19.474;2023-09-19T03:01:08;93289.03;;;18.63;72.10
75219;BME280;63801;49.414;19.474;2023-09-19T03:03:09;93273.16;;;18.55;71.90
75219;BME280;63801;49.414;19.474;2023-09-19T03:05:09;93264.66;;;18.46;71.91
75219;BME280;63801;49.414;19.474;2023-09-19T03:07:11;93281.00;;;18.53;71.90
75219;BME280;63801;49.414;19.474;2023-09-19T03:09:11;93264.31;;;18.44;72.36
75219;BME280;63801;49.414;19.474;2023-09-19T03:11:12;93255.75;;;18.41;72.44
75219;BME280;63801;49.414;19.474;2023-09-19T03:13:15;93277.53;;;18.49;72.15
75219;BME280;63801;49.414;19.474;2023-09-19T03:15:15;93273.25;;;18.48;72.38
75219;BME280;63801;49.414;19.474;2023-09-19T03:17:18;93260.38;;;18.48;72.26
75219;BME280;63801;49.414;19.474;2023-09-19T03:19:20;93253.03;;;18.41;72.14
75219;BME280;63801;49.414;19.474;2023-09-19T03:21:21;93266.31;;;18.39;72.07
75219;BME280;63801;49.414;19.474;2023-09-19T03:23:22;93264.03;;;18.34;72.46
75219;BME280;63801;49.414;19.474;2023-09-19T03:25:23;93261.75;;;18.29;72.56
75219;BME280;63801;49.414;19.474;2023-09-19T03:27:24;93261.03;;;18.25;72.31
75219;BME280;63801;49.414;19.474;2023-09-19T03:29:25;93254.13;;;18.17;72.54
75219;BME280;63801;49.414;19.474;2023-09-19T03:31:25;93253.28;;;18.20;72.62
75219;BME280;63801;49.414;19.474;2023-09-19T03:33:26;93244.75;;;18.18;72.75
75219;BME280;63801;49.414;19.474;2023-09-19T03:35:26;93247.13;;;18.16;72.44
75219;BME280;63801;49.414;19.474;2023-09-19T03:37:26;93236.25;;;18.13;72.77
75219;BME280;63801;49.414;19.474;2023-09-19T03:39:27;93232.84;;;18.05;72.74
75219;BME280;63801;49.414;19.474;2023-09-19T03:41:27;93230.13;;;18.02;72.92
75219;BME280;63801;49.414;19.474;2023-09-19T03:43:28;93232.47;;;18.03;73.37
75219;BME280;63801;49.414;19.474;2023-09-19T03:45:28;93227.00;;;18.03;73.22
75219;BME280;63801;49.414;19.474;2023-09-19T03:47:28;93233.22;;;18.04;73.04
75219;BME280;63801;49.414;19.474;2023-09-19T03:49:29;93222.78;;;17.99;73.14
75219;BME280;63801;49.414;19.474;2023-09-19T03:51:30;93235.56;;;18.05;73.23
75219;BME280;63801;49.414;19.474;2023-09-19T03:53:31;93234.78;;;18.05;73.26
75219;BME280;63801;49.414;19.474;2023-09-19T03:55:31;93237.13;;;18.03;73.39
75219;BME280;63801;49.414;19.474;2023-09-19T03:57:32;93235.19;;;18.03;73.42
75219;BME280;63801;49.414;19.474;2023-09-19T03:59:32;93226.28;;;17.99;73.28
75219;BME280;63801;49.414;19.474;2023-09-19T04:01:33;93224.72;;;17.98;73.62
75219;BME280;63801;49.414;19.474;2023-09-19T04:03:34;93243.75;;;18.05;73.89
75219;BME280;63801;49.414;19.474;2023-09-19T04:05:45;93238.28;;;18.05;73.94
75219;BME280;63801;49.414;19.474;2023-09-19T04:07:46;93227.78;;;18.04;74.30
75219;BME280;63801;49.414;19.474;2023-09-19T04:09:47;93231.28;;;18.04;74.80
75219;BME280;63801;49.414;19.474;2023-09-19T04:11:49;93231.28;;;18.04;75.15
75219;BME280;63801;49.414;19.474;2023-09-19T04:13:50;93230.09;;;18.05;74.51
75219;BME280;63801;49.414;19.474;2023-09-19T04:15:50;93202.56;;;17.92;74.71
75219;BME280;63801;49.414;19.474;2023-09-19T04:17:51;93229.63;;;18.10;74.53
75219;BME280;63801;49.414;19.474;2023-09-19T04:19:51;93222.22;;;18.11;74.40
75219;BME280;63801;49.414;19.474;2023-09-19T04:21:52;93227.28;;;18.12;74.55
75219;BME280;63801;49.414;19.474;2023-09-19T04:23:52;93227.69;;;18.11;74.54
75219;BME280;63801;49.414;19.474;2023-09-19T04:25:52;93211.47;;;18.00;74.69
75219;BME280;63801;49.414;19.474;2023-09-19T04:27:52;93218.50;;;17.98;75.19
75219;BME280;63801;49.414;19.474;2023-09-19T04:29:53;93239.81;;;18.06;74.96
75219;BME280;63801;49.414;19.474;2023-09-19T04:31:53;93228.94;;;18.03;75.43
75219;BME280;63801;49.414;19.474;2023-09-19T04:33:54;93224.72;;;17.98;75.44
75219;BME280;63801;49.414;19.474;2023-09-19T04:35:54;93224.38;;;17.96;75.99
75219;BME280;63801;49.414;19.474;2023-09-19T04:37:55;93228.28;;;17.95;75.88
75219;BME280;63801;49.414;19.474;2023-09-19T04:39:55;93210.50;;;17.83;76.06
75219;BME280;63801;49.414;19.474;2023-09-19T04:41:55;93221.66;;;17.92;76.30
75219;BME280;63801;49.414;19.474;2023-09-19T04:43:57;93227.13;;;17.92;76.55
75219;BME280;63801;49.414;19.474;2023-09-19T04:45:58;93227.53;;;17.91;76.58
75219;BME280;63801;49.414;19.474;2023-09-19T04:48:00;93217.13;;;17.82;76.47
75219;BME280;63801;49.414;19.474;2023-09-19T04:50:00;93219.41;;;17.84;77.15
75219;BME280;63801;49.414;19.474;2023-09-19T04:52:01;93220.97;;;17.85;76.99
75219;BME280;63801;49.414;19.474;2023-09-19T04:54:01;93228.81;;;17.83;77.30
75219;BME280;63801;49.414;19.474;2023-09-19T04:56:03;93229.97;;;17.82;77.24
75219;BME280;63801;49.414;19.474;2023-09-19T04:58:03;93211.38;;;17.73;77.11
75219;BME280;63801;49.414;19.474;2023-09-19T05:00:04;93223.34;;;17.83;77.25
75219;BME280;63801;49.414;19.474;2023-09-19T05:02:12;93229.97;;;17.82;77.50
75219;BME280;63801;49.414;19.474;2023-09-19T05:04:12;93228.47;;;17.77;77.43
75219;BME280;63801;49.414;19.474;2023-09-19T05:06:13;93225.66;;;17.84;77.38
75219;BME280;63801;49.414;19.474;2023-09-19T05:08:14;93226.44;;;17.85;77.88
75219;BME280;63801;49.414;19.474;2023-09-19T05:10:15;93231.88;;;17.85;77.56
75219;BME280;63801;49.414;19.474;2023-09-19T05:12:18;93237.34;;;17.85;77.96
75219;BME280;63801;49.414;19.474;2023-09-19T05:14:19;93214.00;;;17.80;78.10
75219;BME280;63801;49.414;19.474;2023-09-19T05:16:21;93236.50;;;17.88;78.10
75219;BME280;63801;49.414;19.474;2023-09-19T05:18:22;93224.81;;;17.91;77.94
75219;BME280;63801;49.414;19.474;2023-09-19T05:20:22;93217.91;;;17.83;77.66
75219;BME280;63801;49.414;19.474;2023-09-19T05:22:29;93226.44;;;17.85;78.03
75219;BME280;63801;49.414;19.474;2023-09-19T05:24:30;93238.06;;;17.89;77.92
75219;BME280;63801;49.414;19.474;2023-09-19T05:26:31;93226.38;;;17.88;77.81
75219;BME280;63801;49.414;19.474;2023-09-19T05:28:31;93234.59;;;17.85;78.04
75219;BME280;63801;49.414;19.474;2023-09-19T05:30:35;93228.75;;;17.86;77.63
75219;BME280;63801;49.414;19.474;2023-09-19T05:32:39;93230.72;;;17.86;78.18
75219;BME280;63801;49.414;19.474;2023-09-19T05:34:40;93220.31;;;17.74;78.12
75219;BME280;63801;49.414;19.474;2023-09-19T05:36:40;93233.84;;;17.84;77.87
75219;BME280;63801;49.414;19.474;2023-09-19T05:38:40;93235.78;;;17.84;77.89
75219;BME280;63801;49.414;19.474;2023-09-19T05:40:42;93236.97;;;17.83;77.94
75219;BME280;63801;49.414;19.474;2023-09-19T05:42:42;93233.88;;;17.81;78.32
75219;BME280;63801;49.414;19.474;2023-09-19T05:44:44;93234.31;;;17.76;78.36
75219;BME280;63801;49.414;19.474;2023-09-19T05:46:44;93243.59;;;17.82;78.42
75219;BME280;63801;49.414;19.474;2023-09-19T05:48:46;93248.28;;;17.81;77.96
75219;BME280;63801;49.414;19.474;2023-09-19T05:50:48;93247.50;;;17.81;78.40
75219;BME280;63801;49.414;19.474;2023-09-19T05:52:55;93228.50;;;17.74;78.67
75219;BME280;63801;49.414;19.474;2023-09-19T05:54:56;93241.69;;;17.79;78.62
75219;BME280;63801;49.414;19.474;2023-09-19T05:56:56;93256.50;;;17.78;78.35
75219;BME280;63801;49.414;19.474;2023-09-19T05:58:58;93251.44;;;17.76;78.69
75219;BME280;63801;49.414;19.474;2023-09-19T06:00:59;93257.31;;;17.75;78.70
75219;BME280;63801;49.414;19.474;2023-09-19T06:03:00;93261.22;;;17.74;78.96
75219;BME280;63801;49.414;19.474;2023-09-19T06:05:00;93256.25;;;17.65;79.18
75219;BME280;63801;49.414;19.474;2023-09-19T06:07:01;93263.22;;;17.70;78.75
75219;BME280;63801;49.414;19.474;2023-09-19T06:09:02;93250.41;;;17.63;79.37
75219;BME280;63801;49.414;19.474;2023-09-19T06:11:02;93264.81;;;17.64;79.41
75219;BME280;63801;49.414;19.474;2023-09-19T06:13:03;93257.81;;;17.63;79.25
75219;BME280;63801;49.414;19.474;2023-09-19T06:15:10;93264.88;;;17.60;79.14
75219;BME280;63801;49.414;19.474;2023-09-19T06:17:15;93266.41;;;17.58;80.04
75219;BME280;63801;49.414;19.474;2023-09-19T06:19:15;93264.50;;;17.55;79.99
75219;BME280;63801;49.414;19.474;2023-09-19T06:21:16;93252.50;;;17.45;80.24
75219;BME280;63801;49.414;19.474;2023-09-19T06:23:16;93254.88;;;17.39;80.17
75219;BME280;63801;49.414;19.474;2023-09-19T06:25:17;93270.00;;;17.47;80.06
75219;BME280;63801;49.414;19.474;2023-09-19T06:27:21;93266.16;;;17.41;80.44
75219;BME280;63801;49.414;19.474;2023-09-19T06:29:22;93267.72;;;17.42;80.57
75219;BME280;63801;49.414;19.474;2023-09-19T06:31:24;93278.97;;;17.44;80.52
75219;BME280;63801;49.414;19.474;2023-09-19T06:33:26;93287.16;;;17.44;80.48
75219;BME280;63801;49.414;19.474;2023-09-19T06:35:27;93285.63;;;17.43;80.35
75219;BME280;63801;49.414;19.474;2023-09-19T06:37:29;93282.91;;;17.43;80.83
75219;BME280;63801;49.414;19.474;2023-09-19T06:39:30;93276.69;;;17.39;80.74
75219;BME280;63801;49.414;19.474;2023-09-19T06:41:31;93289.50;;;17.46;80.82
75219;BME280;63801;49.414;19.474;2023-09-19T06:43:31;93291.44;;;17.45;80.98
75219;BME280;63801;49.414;19.474;2023-09-19T06:45:34;93289.09;;;17.47;80.76
75219;BME280;63801;49.414;19.474;2023-09-19T06:47:34;93291.81;;;17.47;81.34
75219;BME280;63801;49.414;19.474;2023-09-19T06:49:34;93299.22;;;17.47;81.42
75219;BME280;63801;49.414;19.474;2023-09-19T06:51:35;93291.06;;;17.43;81.66
75219;BME280;63801;49.414;19.474;2023-09-19T06:53:36;93294.53;;;17.47;82.03
75219;BME280;63801;49.414;19.474;2023-09-19T06:55:36;93293.38;;;17.45;82.30
75219;BME280;63801;49.414;19.474;2023-09-19T06:57:40;93299.59;;;17.45;82.38
75219;BME280;63801;49.414;19.474;2023-09-19T06:59:44;93286.06;;;17.38;82.30
75219;BME280;63801;49.414;19.474;2023-09-19T07:01:45;93303.16;;;17.42;82.53
75219;BME280;63801;49.414;19.474;2023-09-19T07:03:47;93296.97;;;17.35;82.52
75219;BME280;63801;49.414;19.474;2023-09-19T07:05:48;93304.31;;;17.41;82.69
75219;BME280;63801;49.414;19.474;2023-09-19T07:07:48;93314.84;;;17.39;82.63
75219;BME280;63801;49.414;19.474;2023-09-19T07:09:49;93305.59;;;17.30;83.08
75219;BME280;63801;49.414;19.474;2023-09-19T07:11:51;93307.53;;;17.29;83.67
75219;BME280;63801;49.414;19.474;2023-09-19T07:13:51;93304.06;;;17.25;83.74
75219;BME280;63801;49.414;19.474;2023-09-19T07:15:51;93322.28;;;17.32;83.77
75219;BME280;63801;49.414;19.474;2023-09-19T07:17:53;93316.84;;;17.32;83.70
75219;BME280;63801;49.414;19.474;2023-09-19T07:19:54;93328.94;;;17.27;83.80
75219;BME280;63801;49.414;19.474;2023-09-19T07:21:54;93331.31;;;17.25;84.14
75219;BME280;63801;49.414;19.474;2023-09-19T07:23:54;93330.56;;;17.21;83.92
75219;BME280;63801;49.414;19.474;2023-09-19T07:25:57;93344.13;;;17.28;83.92
75219;BME280;63801;49.414;19.474;2023-09-19T07:27:59;93349.97;;;17.30;83.46
75219;BME280;63801;49.414;19.474;2023-09-19T07:30:02;93354.59;;;17.33;83.29
75219;BME280;63801;49.414;19.474;2023-09-19T07:32:04;93338.69;;;17.28;83.65
75219;BME280;63801;49.414;19.474;2023-09-19T07:34:04;93357.78;;;17.25;83.32
75219;BME280;63801;49.414;19.474;2023-09-19T07:36:05;93366.69;;;17.29;83.29
75219;BME280;63801;49.414;19.474;2023-09-19T07:38:07;93376.44;;;17.26;83.22
75219;BME280;63801;49.414;19.474;2023-09-19T07:40:08;93378.41;;;17.22;83.04
75219;BME280;63801;49.414;19.474;2023-09-19T07:42:09;93386.56;;;17.22;83.08
75219;BME280;63801;49.414;19.474;2023-09-19T07:44:11;93381.25;;;17.08;82.84
75219;BME280;63801;49.414;19.474;2023-09-19T07:46:11;93396.38;;;17.09;82.63
75219;BME280;63801;49.414;19.474;2023-09-19T07:48:12;93398.34;;;17.05;82.64
75219;BME280;63801;49.414;19.474;2023-09-19T07:50:16;93404.22;;;17.00;82.59
75219;BME280;63801;49.414;19.474;2023-09-19T07:52:18;93410.06;;;16.98;82.65
75219;BME280;63801;49.414;19.474;2023-09-19T07:54:19;93403.88;;;16.91;82.33
75219;BME280;63801;49.414;19.474;2023-09-19T07:56:20;93414.78;;;16.87;82.39
75219;BME280;63801;49.414;19.474;2023-09-19T07:58:22;93402.34;;;16.83;82.54
75219;BME280;63801;49.414;19.474;2023-09-19T08:00:22;93415.22;;;16.75;82.30
75219;BME280;63801;49.414;19.474;2023-09-19T08:02:23;93396.97;;;16.65;82.41
75219;BME280;63801;49.414;19.474;2023-09-19T08:04:23;93405.53;;;16.67;82.47
75219;BME280;63801;49.414;19.474;2023-09-19T08:06:25;93405.56;;;16.64;82.78
75219;BME280;63801;49.414;19.474;2023-09-19T08:08:29;93424.19;;;16.69;82.45
75219;BME280;63801;49.414;19.474;2023-09-19T08:10:29;93417.97;;;16.65;82.31
75219;BME280;63801;49.414;19.474;2023-09-19T08:12:35;93430.41;;;16.69;82.27
75219;BME280;63801;49.414;19.474;2023-09-19T08:14:36;93430.41;;;16.66;82.49
75219;BME280;63801;49.414;19.474;2023-09-19T08:16:41;93436.63;;;16.66;82.38
75219;BME280;63801;49.414;19.474;2023-09-19T08:18:47;93446.38;;;16.67;82.71
75219;BME280;63801;49.414;19.474;2023-09-19T08:20:52;93438.19;;;16.67;82.87
75219;BME280;63801;49.414;19.474;2023-09-19T08:22:53;93441.28;;;16.69;82.62
75219;BME280;63801;49.414;19.474;2023-09-19T08:24:54;93443.63;;;16.71;82.89
75219;BME280;63801;49.414;19.474;2023-09-19T08:26:56;93442.84;;;16.70;82.59
75219;BME280;63801;49.414;19.474;2023-09-19T08:28:57;93451.41;;;16.69;82.88
75219;BME280;63801;49.414;19.474;2023-09-19T08:31:04;93452.59;;;16.68;82.78
75219;BME280;63801;49.414;19.474;2023-09-19T08:33:04;93447.16;;;16.68;83.40
75219;BME280;63801;49.414;19.474;2023-09-19T08:35:05;93452.59;;;16.60;82.95
75219;BME280;63801;49.414;19.474;2023-09-19T08:37:06;93460.75;;;16.60;82.94
75219;BME280;63801;49.414;19.474;2023-09-19T08:39:07;93467.78;;;16.58;83.03
75219;BME280;63801;49.414;19.474;2023-09-19T08:41:08;93462.31;;;16.51;82.86
75219;BME280;63801;49.414;19.474;2023-09-19T08:43:09;93459.22;;;16.45;83.02
75219;BME280;63801;49.414;19.474;2023-09-19T08:45:10;93466.63;;;16.34;83.41
75219;BME280;63801;49.414;19.474;2023-09-19T08:47:15;93466.25;;;16.32;82.95
75219;BME280;63801;49.414;19.474;2023-09-19T08:49:27;93465.47;;;16.28;83.22
75219;BME280;63801;49.414;19.474;2023-09-19T08:53:51;93477.13;;;16.18;83.46
75219;BME280;63801;49.414;19.474;2023-09-19T08:55:52;93474.41;;;16.18;83.22
75219;BME280;63801;49.414;19.474;2023-09-19T08:58:03;93484.53;;;16.14;83.70
75219;BME280;63801;49.414;19.474;2023-09-19T09:00:07;93481.81;;;16.10;83.59
75219;BME280;63801;49.414;19.474;2023-09-19T09:02:12;93497.34;;;16.10;83.58
75219;BME280;63801;49.414;19.474;2023-09-19T09:04:14;93480.63;;;16.04;83.90
75219;BME280;63801;49.414;19.474;2023-09-19T09:06:14;93493.84;;;16.09;83.74
75219;BME280;63801;49.414;19.474;2023-09-19T09:08:15;93498.09;;;16.07;83.46
75219;BME280;63801;49.414;19.474;2023-09-19T09:10:20;93494.59;;;16.03;84.04
75219;BME280;63801;49.414;19.474;2023-09-19T09:12:23;93508.22;;;16.10;84.01
75219;BME280;63801;49.414;19.474;2023-09-19T09:14:24;93510.53;;;16.08;84.27
75219;BME280;63801;49.414;19.474;2023-09-19T09:16:24;93514.81;;;16.16;83.95
75219;BME280;63801;49.414;19.474;2023-09-19T09:18:26;93511.72;;;16.17;84.13
75219;BME280;63801;49.414;19.474;2023-09-19T09:20:26;93506.66;;;16.12;84.07
75219;BME280;63801;49.414;19.474;2023-09-19T09:22:27;93518.31;;;16.20;84.39
75219;BME280;63801;49.414;19.474;2023-09-19T09:26:42;93517.53;;;16.23;83.93
75219;BME280;63801;49.414;19.474;2023-09-19T09:28:47;93520.63;;;16.25;84.13
75219;BME280;63801;49.414;19.474;2023-09-19T09:30:48;93508.22;;;16.10;84.19
75219;BME280;63801;49.414;19.474;2023-09-19T09:33:07;93538.53;;;16.26;84.33
75219;BME280;63801;49.414;19.474;2023-09-19T09:35:08;93539.31;;;16.27;84.17
75219;BME280;63801;49.414;19.474;2023-09-19T09:37:15;93540.06;;;16.31;84.04
75219;BME280;63801;49.414;19.474;2023-09-19T09:39:29;93526.06;;;16.25;84.29
75219;BME280;63801;49.414;19.474;2023-09-19T09:41:37;93534.63;;;16.31;84.23
75219;BME280;63801;49.414;19.474;2023-09-19T09:43:40;93557.56;;;16.44;84.35
75219;BME280;63801;49.414;19.474;2023-09-19T09:45:41;93553.28;;;16.46;83.76
75219;BME280;63801;49.414;19.474;2023-09-19T09:47:49;93551.75;;;16.45;83.94
75219;BME280;63801;49.414;19.474;2023-09-19T09:49:56;93557.19;;;16.49;83.59
75219;BME280;63801;49.414;19.474;2023-09-19T09:52:07;93560.28;;;16.51;84.26
75219;BME280;63801;49.414;19.474;2023-09-19T09:54:17;93567.25;;;16.55;84.03
75219;BME280;63801;49.414;19.474;2023-09-19T09:56:20;93557.94;;;16.49;83.78
75219;BME280;63801;49.414;19.474;2023-09-19T09:58:21;93561.81;;;16.55;83.78
75219;BME280;63801;49.414;19.474;2023-09-19T10:00:25;93569.63;;;16.60;84.13
75219;BME280;63801;49.414;19.474;2023-09-19T10:02:35;93567.31;;;16.63;84.01
75219;BME280;63801;49.414;19.474;2023-09-19T10:04:40;93564.19;;;16.60;83.67
75219;BME280;63801;49.414;19.474;2023-09-19T10:06:51;93554.44;;;16.52;83.58
75219;BME280;63801;49.414;19.474;2023-09-19T10:09:10;93578.19;;;16.66;83.70
75219;BME280;63801;49.414;19.474;2023-09-19T10:11:16;93578.59;;;16.68;83.71
75219;BME280;63801;49.414;19.474;2023-09-19T10:13:16;93572.34;;;16.68;83.98
75219;BME280;63801;49.414;19.474;2023-09-19T10:15:23;93561.84;;;16.63;83.82
75219;BME280;63801;49.414;19.474;2023-09-19T10:17:28;93576.63;;;16.72;83.78
75219;BME280;63801;49.414;19.474;2023-09-19T10:19:36;93575.44;;;16.70;83.97
75219;BME280;63801;49.414;19.474;2023-09-19T10:21:37;93573.50;;;16.70;84.17
75219;BME280;63801;49.414;19.474;2023-09-19T10:23:40;93563.00;;;16.65;83.74
75219;BME280;63801;49.414;19.474;2023-09-19T10:25:43;93573.50;;;16.74;83.80
75219;BME280;63801;49.414;19.474;2023-09-19T10:27:48;93570.38;;;16.79;83.71
75219;BME280;63801;49.414;19.474;2023-09-19T10:29:51;93577.75;;;16.82;84.09
75219;BME280;63801;49.414;19.474;2023-09-19T10:31:52;93580.88;;;16.84;83.64
75219;BME280;63801;49.414;19.474;2023-09-19T10:33:55;93571.94;;;16.83;83.74
75219;BME280;63801;49.414;19.474;2023-09-19T10:35:59;93572.69;;;16.87;83.68
75219;BME280;63801;49.414;19.474;2023-09-19T10:38:01;93579.31;;;16.86;83.97
75219;BME280;63801;49.414;19.474;2023-09-19T10:40:01;93576.59;;;16.83;83.80
75219;BME280;63801;49.414;19.474;2023-09-19T10:42:06;93578.94;;;16.88;84.09
75219;BME280;63801;49.414;19.474;2023-09-19T10:44:08;93576.59;;;16.83;83.74
75219;BME280;63801;49.414;19.474;2023-09-19T10:46:09;93583.59;;;16.87;83.88
75219;BME280;63801;49.414;19.474;2023-09-19T10:48:12;93580.47;;;16.82;83.80
75219;BME280;63801;49.414;19.474;2023-09-19T10:50:22;93585.94;;;16.82;83.68
75219;BME280;63801;49.414;19.474;2023-09-19T10:52:25;93586.72;;;16.82;83.98
75219;BME280;63801;49.414;19.474;2023-09-19T10:54:31;93592.94;;;16.79;83.54
75219;BME280;63801;49.414;19.474;2023-09-19T10:56:38;93586.34;;;16.77;83.88